Time;durP1;ratioP1;P1;durP2;ratioP2;P2;SDS_P1;SDS_P2;PMS_P1;PMS_P2;Temp;Humidity;BMP_temperature;BMP_pressure;BME280_temperature;BME280_humidity;BME280_pressure;Samples;Min_cycle;Max_cycle;Signal;HPM_P1;HPM_P2
2021/12/10 00:01:18;;;;;;;34.63;13.57;;;;;;;-145.18;100.00;47641.09;5069470;28;20274;-68
2021/12/10 00:03:47;;;;;;;26.47;12.67;;;;;;;-145.18;100.00;47660.63;5069259;28;20262;-68
2021/12/10 00:06:22;;;;;;;33.37;13.97;;;;;;;-145.18;100.00;47627.41;5069893;28;20695;-68
2021/12/10 00:08:53;;;;;;;32.83;14.03;;;;;;;-145.18;100.00;47627.41;5069693;28;20406;-68
2021/12/10 00:11:33;;;;;;;30.53;13.17;;;;;;;-145.18;100.00;47625.47;5069468;28;20348;-68
2021/12/10 00:14:00;;;;;;;24.77;12.73;;;;;;;-145.18;100.00;47621.56;5070027;28;20276;-68
2021/12/10 00:16:26;;;;;;;29.87;13.17;;;;;;;-145.18;100.00;47639.13;5069451;28;20281;-68
2021/12/10 00:19:04;;;;;;;31.57;15.27;;;;;;;-145.18;100.00;47637.19;5069027;28;20277;-68
2021/12/10 00:21:30;;;;;;;31.13;14.97;;;;;;;-145.18;100.00;47637.19;5068822;28;20040;-68
2021/12/10 00:23:56;;;;;;;31.60;16.97;;;;;;;-145.18;100.00;47625.47;5069540;28;20342;-68
2021/12/10 00:26:22;;;;;;;30.47;15.57;;;;;;;-145.18;100.00;47621.56;5067803;28;20056;-68
2021/12/10 00:28:49;;;;;;;32.33;15.43;;;;;;;-145.18;100.00;47645.00;5069217;28;20286;-68
2021/12/10 00:31:42;;;;;;;29.42;14.88;;;;;;;-145.18;100.00;47625.47;5069426;28;20460;-68
2021/12/10 00:34:32;;;;;;;34.53;14.23;;;;;;;-145.18;100.00;47639.13;5069747;28;20037;-68
2021/12/10 00:37:01;;;;;;;28.97;13.77;;;;;;;-145.18;100.00;47629.38;5069432;28;20344;-68
2021/12/10 00:39:30;;;;;;;28.90;15.23;;;;;;;-145.18;100.00;47643.03;5069238;28;20278;-68
2021/12/10 00:41:58;;;;;;;35.13;14.30;;;;;;;-145.18;100.00;47637.19;5069084;28;20253;-68
2021/12/10 00:44:24;;;;;;;30.83;15.50;;;;;;;-145.18;100.00;47643.03;5068756;28;20642;-68
2021/12/10 00:46:50;;;;;;;31.73;15.33;;;;;;;-145.18;100.00;47633.28;5068583;28;20280;-68
2021/12/10 00:49:15;;;;;;;33.27;14.47;;;;;;;-145.18;100.00;47633.28;5068992;28;20036;-68
2021/12/10 00:51:42;;;;;;;26.17;13.73;;;;;;;-145.18;100.00;47643.03;5068444;28;20657;-68
2021/12/10 00:54:09;;;;;;;33.50;13.80;;;;;;;-145.18;100.00;47650.88;5068731;28;20131;-68
2021/12/10 00:56:35;;;;;;;29.57;12.93;;;;;;;-145.18;100.00;47639.13;5069283;28;20783;-67
2021/12/10 00:59:01;;;;;;;35.47;14.20;;;;;;;-145.18;100.00;47633.28;5068605;28;20365;-68
2021/12/10 01:01:29;;;;;;;28.33;13.07;;;;;;;-145.18;100.00;47652.81;5068369;28;20506;-68
2021/12/10 01:04:08;;;;;;;24.53;10.57;;;;;;;-145.18;100.00;47648.91;5068608;28;20036;-68
2021/12/10 01:06:35;;;;;;;26.37;12.60;;;;;;;-145.18;100.00;47643.03;5066630;28;20269;-68
2021/12/10 01:09:07;;;;;;;29.23;11.50;;;;;;;-145.18;100.00;47674.31;5068393;28;20273;-68
2021/12/10 01:11:38;;;;;;;21.87;10.90;;;;;;;-145.18;100.00;47619.59;5067814;28;20363;-68
2021/12/10 01:14:18;;;;;;;27.50;12.47;;;;;;;-145.18;100.00;47641.09;5068476;28;20281;-68
2021/12/10 01:27:32;;;;;;;27.57;11.83;;;;;;;-145.18;100.00;47648.91;5068230;28;20277;-68
2021/12/10 01:30:11;;;;;;;20.93;9.90;;;;;;;-145.18;100.00;47641.09;5068095;28;20052;-68
2021/12/10 01:32:41;;;;;;;26.60;10.00;;;;;;;-145.18;100.00;47646.97;5067852;28;20292;-67
2021/12/10 01:35:11;;;;;;;22.90;10.33;;;;;;;-145.18;100.00;47637.19;5067693;28;20258;-68
2021/12/10 01:37:37;;;;;;;20.27;8.83;;;;;;;-145.18;100.00;47654.78;5067816;28;20276;-68
2021/12/10 01:40:06;;;;;;;19.53;9.47;;;;;;;-145.18;100.00;47648.91;5068067;28;20273;-67
2021/12/10 01:42:40;;;;;;;19.97;9.33;;;;;;;-145.18;100.00;47641.09;5067533;28;20060;-68
2021/12/10 01:45:19;;;;;;;24.25;8.30;;;;;;;-145.18;100.00;47631.31;5067588;28;20812;-68
2021/12/10 01:47:50;;;;;;;23.67;8.70;;;;;;;-145.18;100.00;47637.19;5067763;28;20060;-67
2021/12/10 01:50:17;;;;;;;18.30;7.77;;;;;;;-145.18;100.00;47650.88;5067712;28;20750;-68
2021/12/10 01:52:42;;;;;;;14.43;7.83;;;;;;;-145.18;100.00;47650.88;5067563;28;20257;-68
2021/12/10 01:55:08;;;;;;;17.87;8.50;;;;;;;-145.18;100.00;47635.22;5067595;28;20265;-68
2021/12/10 01:57:37;;;;;;;17.70;6.73;;;;;;;-145.18;100.00;47643.03;5067511;28;20055;-68
2021/12/10 02:00:09;;;;;;;21.90;8.20;;;;;;;-145.18;100.00;47621.56;5065968;28;20695;-68
2021/12/10 02:02:35;;;;;;;16.07;8.10;;;;;;;-145.18;100.00;47635.22;5067361;28;20343;-68
2021/12/10 02:05:05;;;;;;;18.67;6.30;;;;;;;-145.18;100.00;47641.09;5067643;28;20740;-68
2021/12/10 02:07:30;;;;;;;19.87;7.50;;;;;;;-145.18;100.00;47656.72;5061867;28;20278;-68
2021/12/10 02:09:56;;;;;;;20.53;8.07;;;;;;;-145.18;100.00;47645.00;5048423;28;20689;-68
2021/12/10 02:12:22;;;;;;;17.37;6.90;;;;;;;-145.18;100.00;47637.19;5047511;28;20482;-68
2021/12/10 02:14:57;;;;;;;16.50;7.37;;;;;;;-145.18;100.00;47652.81;5047058;28;20509;-68
2021/12/10 02:17:24;;;;;;;19.88;6.85;;;;;;;-145.18;100.00;47650.88;5046920;28;20045;-68
2021/12/10 02:19:49;;;;;;;17.07;6.80;;;;;;;-145.18;100.00;47646.97;5046460;28;20047;-68
2021/12/10 02:22:15;;;;;;;15.93;6.90;;;;;;;-145.18;100.00;47645.00;5046821;28;20274;-68
2021/12/10 02:24:40;;;;;;;18.30;7.00;;;;;;;-145.18;100.00;47645.00;5047039;28;20044;-68
2021/12/10 02:27:07;;;;;;;16.03;6.40;;;;;;;-145.18;100.00;47625.47;5046861;28;20053;-67
2021/12/10 02:29:37;;;;;;;16.13;5.80;;;;;;;-145.18;100.00;47646.97;5046983;28;20048;-68
2021/12/10 02:32:05;;;;;;;14.37;6.20;;;;;;;-145.18;100.00;47656.72;5046666;28;20773;-68
2021/12/10 02:34:30;;;;;;;11.57;5.73;;;;;;;-145.18;100.00;47639.13;5047552;28;20647;-68
2021/12/10 02:36:56;;;;;;;19.87;6.20;;;;;;;-145.18;100.00;47631.31;5045614;28;20280;-67
2021/12/10 02:39:24;;;;;;;16.80;6.93;;;;;;;-145.18;100.00;47652.81;5046998;28;20041;-68
2021/12/10 02:41:49;;;;;;;15.43;6.60;;;;;;;-145.18;100.00;47645.00;5046979;28;20588;-67
2021/12/10 02:44:21;;;;;;;18.23;5.80;;;;;;;-145.18;100.00;47658.69;5047134;28;20266;-68
2021/12/10 02:46:46;;;;;;;17.37;5.93;;;;;;;-145.18;100.00;47652.81;5046784;28;20595;-67
2021/12/10 02:49:12;;;;;;;20.17;6.17;;;;;;;-145.18;100.00;47648.91;5047016;28;20309;-68
2021/12/10 02:51:39;;;;;;;11.70;5.40;;;;;;;-145.18;100.00;47639.13;5046830;28;20037;-68
2021/12/10 02:54:08;;;;;;;19.27;5.70;;;;;;;-145.18;100.00;47629.38;5047266;28;20352;-67
2021/12/10 02:56:34;;;;;;;16.47;6.20;;;;;;;-145.18;100.00;47637.19;5046680;28;20266;-67
2021/12/10 02:59:02;;;;;;;15.60;5.73;;;;;;;-145.18;100.00;47652.81;5046873;28;20354;-68
2021/12/10 03:01:37;;;;;;;22.13;5.60;;;;;;;-145.18;100.00;47631.31;5046941;28;20044;-68
2021/12/10 03:04:03;;;;;;;15.23;5.50;;;;;;;-145.18;100.00;47639.13;5046506;28;20278;-68
2021/12/10 03:06:31;;;;;;;13.60;5.77;;;;;;;-145.18;100.00;47652.81;5046748;28;20030;-68
2021/12/10 03:08:57;;;;;;;14.93;5.93;;;;;;;-145.18;100.00;47645.00;5046845;28;20278;-68
2021/12/10 03:11:30;;;;;;;19.20;6.00;;;;;;;-145.18;100.00;47643.03;5046413;28;20282;-68
2021/12/10 03:13:56;;;;;;;19.63;5.63;;;;;;;-145.18;100.00;47639.13;5046977;28;20708;-68
2021/12/10 03:16:22;;;;;;;19.73;6.43;;;;;;;-145.18;100.00;47627.41;5046497;28;21045;-68
2021/12/10 03:18:48;;;;;;;10.93;5.33;;;;;;;-145.18;100.00;47648.91;5046450;28;20329;-68
2021/12/10 03:21:14;;;;;;;16.57;5.07;;;;;;;-145.18;100.00;47645.00;5047171;28;20132;-68
2021/12/10 03:23:42;;;;;;;15.70;5.57;;;;;;;-145.18;100.00;47619.59;5046478;28;20048;-68
2021/12/10 03:26:14;;;;;;;11.33;4.43;;;;;;;-145.18;100.00;47637.19;5046289;28;20285;-67
2021/12/10 03:28:41;;;;;;;17.57;4.20;;;;;;;-145.18;100.00;47625.47;5046365;28;20281;-67
2021/12/10 03:31:07;;;;;;;12.63;5.50;;;;;;;-145.18;100.00;47629.38;5049569;28;20278;-68
2021/12/10 03:33:34;;;;;;;17.13;4.47;;;;;;;-145.18;100.00;47625.47;5050315;28;20271;-68
2021/12/10 03:36:00;;;;;;;13.97;4.17;;;;;;;-145.18;100.00;47629.38;5050505;28;20285;-68
2021/12/10 03:38:27;;;;;;;15.70;4.10;;;;;;;-145.18;100.00;47645.00;5049911;28;20762;-68
2021/12/10 03:40:53;;;;;;;17.60;4.57;;;;;;;-145.18;100.00;47648.91;5049761;28;20270;-68
2021/12/10 03:43:20;;;;;;;14.57;4.10;;;;;;;-145.18;100.00;47627.41;5050295;28;20340;-68
2021/12/10 03:45:52;;;;;;;16.80;4.93;;;;;;;-145.18;100.00;47623.50;5049825;28;20278;-68
2021/12/10 03:48:22;;;;;;;10.27;4.00;;;;;;;-145.18;100.00;47648.91;5050381;28;20305;-68
2021/12/10 03:50:48;;;;;;;9.00;3.73;;;;;;;-145.18;100.00;47625.47;5049866;28;20646;-68
2021/12/10 03:53:15;;;;;;;10.37;2.87;;;;;;;-145.18;100.00;47617.66;5050064;28;20281;-67
2021/12/10 03:55:41;;;;;;;12.63;3.40;;;;;;;-145.18;100.00;47625.47;5049598;28;20269;-67
2021/12/10 03:58:06;;;;;;;14.70;3.90;;;;;;;-145.18;100.00;47619.59;5049891;28;20332;-67
2021/12/10 04:00:37;;;;;;;12.63;3.90;;;;;;;-145.18;100.00;47619.59;5049678;28;20057;-68
2021/12/10 04:03:04;;;;;;;17.60;3.73;;;;;;;-145.18;100.00;47633.28;5049884;28;20114;-67
2021/12/10 04:05:30;;;;;;;9.60;3.17;;;;;;;-145.18;100.00;47627.41;5049694;28;20282;-68
2021/12/10 04:07:56;;;;;;;8.83;3.93;;;;;;;-145.18;100.00;47633.28;5050374;28;20327;-67
2021/12/10 04:10:23;;;;;;;10.03;3.00;;;;;;;-145.18;100.00;47621.56;5049904;28;20094;-67
2021/12/10 04:12:49;;;;;;;14.80;3.50;;;;;;;-145.18;100.00;47619.59;5048956;28;20053;-67
2021/12/10 04:15:19;;;;;;;11.27;3.50;;;;;;;-145.18;100.00;47635.22;5049860;28;20281;-67
2021/12/10 04:17:45;;;;;;;10.67;2.83;;;;;;;-145.18;100.00;47633.28;5049106;28;20270;-68
2021/12/10 04:20:11;;;;;;;12.37;2.90;;;;;;;-145.18;100.00;47609.84;5049587;28;20355;-68
2021/12/10 04:22:36;;;;;;;6.57;2.50;;;;;;;-145.18;100.00;47615.69;5048903;28;20048;-68
2021/12/10 04:25:06;;;;;;;11.07;2.50;;;;;;;-145.18;100.00;47619.59;5049397;28;20037;-68
2021/12/10 04:27:32;;;;;;;12.90;3.13;;;;;;;-145.18;100.00;47617.66;5049461;28;20044;-68
2021/12/10 04:29:58;;;;;;;8.50;2.87;;;;;;;-145.18;100.00;47635.22;5049438;28;20331;-68
2021/12/10 04:32:25;;;;;;;10.03;2.57;;;;;;;-145.18;100.00;47635.22;5048662;28;20037;-68
2021/12/10 04:34:51;;;;;;;13.80;2.50;;;;;;;-145.18;100.00;47619.59;5049010;28;20271;-67
2021/12/10 04:37:17;;;;;;;8.90;2.37;;;;;;;-145.18;100.00;47629.38;5048876;28;20427;-68
2021/12/10 04:39:48;;;;;;;9.27;2.80;;;;;;;-145.18;100.00;47639.13;5048662;28;20282;-68
2021/12/10 04:42:20;;;;;;;16.07;3.80;;;;;;;-145.18;100.00;47646.97;5048011;28;20262;-67
2021/12/10 04:44:45;;;;;;;13.60;2.67;;;;;;;-145.18;100.00;47643.03;5047819;28;20292;-68
2021/12/10 04:47:11;;;;;;;11.93;2.70;;;;;;;-145.18;100.00;47617.66;5050812;28;20281;-68
2021/12/10 04:49:37;;;;;;;7.43;2.00;;;;;;;-145.18;100.00;47617.66;5060129;28;20049;-68
2021/12/10 04:52:04;;;;;;;8.47;2.50;;;;;;;-145.18;100.00;47621.56;5048393;28;20489;-68
2021/12/10 04:54:29;;;;;;;12.23;2.50;;;;;;;-145.18;100.00;47611.78;5048133;28;20048;-68
2021/12/10 04:56:58;;;;;;;9.03;2.50;;;;;;;-145.18;100.00;47619.59;5048578;28;20682;-67
2021/12/10 04:59:27;;;;;;;9.97;2.13;;;;;;;-145.18;100.00;47592.25;5048490;28;20128;-67
2021/12/10 05:01:55;;;;;;;11.67;2.17;;;;;;;-145.18;100.00;47617.66;5049934;28;20275;-67
2021/12/10 05:04:22;;;;;;;11.40;2.83;;;;;;;-145.18;100.00;47627.41;5047247;28;20343;-68
2021/12/10 05:06:47;;;;;;;7.27;2.33;;;;;;;-145.18;100.00;47633.28;5047158;28;20335;-68
2021/12/10 05:09:13;;;;;;;9.27;2.63;;;;;;;-145.18;100.00;47609.84;5047428;28;20278;-68
2021/12/10 05:11:39;;;;;;;9.20;2.47;;;;;;;-145.18;100.00;47621.56;5047994;28;20033;-67
2021/12/10 05:14:06;;;;;;;12.63;2.97;;;;;;;-145.18;100.00;47627.41;5047490;28;20413;-67
2021/12/10 05:16:34;;;;;;;8.23;2.30;;;;;;;-145.18;100.00;47631.31;5048710;28;20289;-68
2021/12/10 05:19:01;;;;;;;9.73;2.43;;;;;;;-145.18;100.00;47619.59;5046024;28;20347;-67
2021/12/10 05:21:30;;;;;;;10.63;2.00;;;;;;;-145.18;100.00;47617.66;5046660;28;20778;-68
2021/12/10 05:23:57;;;;;;;5.77;1.90;;;;;;;-145.18;100.00;47603.97;5047709;28;20276;-68
2021/12/10 05:26:23;;;;;;;10.70;2.67;;;;;;;-145.18;100.00;47629.38;5047020;28;20923;-68
2021/12/10 05:28:49;;;;;;;8.97;3.37;;;;;;;-145.18;100.00;47623.50;5047028;28;20270;-68
2021/12/10 05:31:14;;;;;;;14.93;3.60;;;;;;;-145.18;100.00;47623.50;5046640;28;20037;-68
2021/12/10 05:33:39;;;;;;;10.40;3.23;;;;;;;-145.18;100.00;47613.75;5049952;28;20068;-68
2021/12/10 05:36:06;;;;;;;9.83;3.50;;;;;;;-145.18;100.00;47645.00;5046855;28;20132;-68
2021/12/10 05:38:31;;;;;;;12.53;3.30;;;;;;;-145.18;100.00;47631.31;5046475;28;20052;-67
2021/12/10 05:40:59;;;;;;;12.53;4.50;;;;;;;-145.18;100.00;47633.28;5046230;28;20352;-68
2021/12/10 05:43:25;;;;;;;12.37;4.20;;;;;;;-145.18;100.00;47625.47;5046629;28;20056;-68
2021/12/10 05:45:51;;;;;;;12.50;3.83;;;;;;;-145.18;100.00;47631.31;5047339;28;20276;-68
2021/12/10 05:48:17;;;;;;;13.50;3.87;;;;;;;-145.18;100.00;47621.56;5048404;28;20308;-68
2021/12/10 05:50:42;;;;;;;12.93;3.23;;;;;;;-145.18;100.00;47625.47;5046720;28;20297;-68
2021/12/10 05:53:08;;;;;;;10.80;3.37;;;;;;;-145.18;100.00;47623.50;5054897;28;20519;-68
2021/12/10 05:55:36;;;;;;;7.90;2.50;;;;;;;-145.18;100.00;47619.59;5059020;28;20095;-68
2021/12/10 05:58:01;;;;;;;14.73;2.50;;;;;;;-145.18;100.00;47635.22;5046860;28;20312;-68
2021/12/10 06:00:33;;;;;;;8.70;2.60;;;;;;;-145.18;100.00;47621.56;5047435;28;20647;-67
2021/12/10 06:02:59;;;;;;;8.47;2.13;;;;;;;-145.18;100.00;47637.19;5047326;28;20043;-68
2021/12/10 06:05:26;;;;;;;11.77;2.60;;;;;;;-145.18;100.00;47631.31;5047618;28;20800;-68
2021/12/10 06:07:52;;;;;;;8.77;2.40;;;;;;;-145.18;100.00;47617.66;5047813;28;20369;-68
2021/12/10 06:10:19;;;;;;;7.93;2.47;;;;;;;-145.18;100.00;47609.84;5047439;28;20361;-67
2021/12/10 06:12:46;;;;;;;9.43;2.53;;;;;;;-145.18;100.00;47613.75;5046839;28;20754;-68
2021/12/10 06:15:13;;;;;;;9.80;3.20;;;;;;;-145.18;100.00;47645.00;5047341;28;20278;-67
2021/12/10 06:17:39;;;;;;;15.87;3.53;;;;;;;-145.18;100.00;47631.31;5046880;28;20846;-68
2021/12/10 06:20:07;;;;;;;10.23;3.10;;;;;;;-145.18;100.00;47611.78;5046563;28;20353;-68
2021/12/10 06:22:34;;;;;;;10.50;3.17;;;;;;;-145.18;100.00;47629.38;5046567;28;20099;-68
2021/12/10 06:24:59;;;;;;;11.07;3.17;;;;;;;-145.18;100.00;47605.94;5045715;28;20294;-68
2021/12/10 06:27:25;;;;;;;10.23;3.60;;;;;;;-145.18;100.00;47631.31;5063269;28;20063;-68
2021/12/10 06:29:50;;;;;;;8.47;3.10;;;;;;;-145.18;100.00;47617.66;5086476;28;20048;-68
2021/12/10 06:32:16;;;;;;;15.03;3.33;;;;;;;-145.18;100.00;47621.56;5087641;28;20043;-68
2021/12/10 06:34:42;;;;;;;10.33;2.80;;;;;;;-145.18;100.00;47623.50;5086690;28;20097;-68
2021/12/10 06:37:07;;;;;;;12.97;3.80;;;;;;;-145.18;100.00;47613.75;5087336;28;20058;-68
2021/12/10 06:39:33;;;;;;;9.83;2.93;;;;;;;-145.18;100.00;47615.69;5086938;28;20036;-68
2021/12/10 06:41:59;;;;;;;8.10;3.10;;;;;;;-145.18;100.00;47621.56;5087742;28;20114;-68
2021/12/10 06:44:24;;;;;;;13.03;3.20;;;;;;;-145.18;100.00;47609.84;5087227;28;20356;-68
2021/12/10 06:46:50;;;;;;;11.97;3.20;;;;;;;-145.18;100.00;47611.78;5086623;28;20040;-68
2021/12/10 06:49:17;;;;;;;11.60;3.20;;;;;;;-145.18;100.00;47609.84;5087267;28;20035;-68
2021/12/10 06:51:44;;;;;;;12.73;3.47;;;;;;;-145.18;100.00;47627.41;5086848;28;20304;-68
2021/12/10 06:54:10;;;;;;;14.07;3.60;;;;;;;-145.18;100.00;47613.75;5087029;28;20301;-68
2021/12/10 06:56:36;;;;;;;14.07;3.80;;;;;;;-145.18;100.00;47631.31;5087407;28;20304;-68
2021/12/10 06:59:04;;;;;;;17.63;3.77;;;;;;;-145.18;100.00;47625.47;5087229;28;20271;-68
2021/12/10 07:01:33;;;;;;;11.60;2.70;;;;;;;-145.18;100.00;47611.78;5086614;28;20285;-68
2021/12/10 07:04:02;;;;;;;14.67;3.20;;;;;;;-145.18;100.00;47641.09;5087062;28;20289;-68
2021/12/10 07:06:28;;;;;;;14.37;4.10;;;;;;;-145.18;100.00;47619.59;5090927;28;20302;-68
2021/12/10 07:08:56;;;;;;;15.97;3.70;;;;;;;-145.18;100.00;47633.28;5066741;28;20314;-68
2021/12/10 07:11:23;;;;;;;17.77;4.83;;;;;;;-145.18;100.00;47613.75;5050550;28;20741;-68
2021/12/10 07:13:52;;;;;;;15.00;4.70;;;;;;;-145.18;100.00;47629.38;5050404;28;20821;-68
2021/12/10 07:16:20;;;;;;;17.10;4.50;;;;;;;-145.18;100.00;47617.66;5050607;28;20267;-68
2021/12/10 07:18:45;;;;;;;15.07;4.00;;;;;;;-145.18;100.00;47623.50;5050557;28;20670;-68
2021/12/10 07:21:11;;;;;;;16.97;4.77;;;;;;;-145.18;100.00;47621.56;5050916;28;20282;-68
2021/12/10 07:23:37;;;;;;;11.50;3.97;;;;;;;-145.18;100.00;47627.41;5050188;28;20171;-68
2021/12/10 07:26:04;;;;;;;16.13;3.90;;;;;;;-145.18;100.00;47617.66;5050739;28;20052;-68
2021/12/10 07:28:30;;;;;;;12.37;3.67;;;;;;;-145.18;100.00;47611.78;5049676;28;20278;-68
2021/12/10 07:30:56;;;;;;;12.80;4.23;;;;;;;-145.18;100.00;47609.84;5055517;28;20662;-68
2021/12/10 07:33:22;;;;;;;9.10;3.20;;;;;;;-145.18;100.00;47609.84;5072895;28;20048;-68
2021/12/10 07:35:49;;;;;;;12.67;3.70;;;;;;;-145.18;100.00;47605.94;5090183;28;20064;-69
2021/12/10 07:38:16;;;;;;;9.80;2.63;;;;;;;-145.18;100.00;47600.06;5090544;28;20276;-68
2021/12/10 07:40:42;;;;;;;8.57;2.50;;;;;;;-145.18;100.00;47621.56;5087283;28;20292;-68
2021/12/10 07:43:08;;;;;;;8.03;2.03;;;;;;;-145.18;100.00;47627.41;5067613;28;20236;-68
2021/12/10 07:45:35;;;;;;;11.83;2.30;;;;;;;-145.18;100.00;47607.88;5069254;28;20641;-68
2021/12/10 07:48:07;;;;;;;12.20;3.27;;;;;;;-145.18;100.00;47607.88;5069475;28;20036;-68
2021/12/10 07:50:38;;;;;;;6.93;2.20;;;;;;;-145.18;100.00;47607.88;5069520;28;20261;-68
2021/12/10 07:53:05;;;;;;;9.87;2.23;;;;;;;-145.18;100.00;47613.75;5069210;28;20269;-68
2021/12/10 07:55:33;;;;;;;6.47;2.33;;;;;;;-145.18;100.00;47605.94;5068891;28;20278;-68
2021/12/10 07:57:59;;;;;;;9.70;2.60;;;;;;;-145.18;100.00;47603.97;5069103;28;20813;-68
2021/12/10 08:00:28;;;;;;;11.07;2.70;;;;;;;-145.18;100.00;47605.94;5069008;28;20361;-68
2021/12/10 08:02:53;;;;;;;11.77;2.43;;;;;;;-145.18;100.00;47609.84;5069051;28;20277;-68
2021/12/10 08:05:21;;;;;;;9.20;2.90;;;;;;;-145.18;100.00;47611.78;5069814;28;20276;-68
2021/12/10 08:07:48;;;;;;;11.53;2.70;;;;;;;-145.18;100.00;47609.84;5068003;28;20033;-68
2021/12/10 08:10:15;;;;;;;10.70;2.40;;;;;;;-145.18;100.00;47603.97;5069187;28;20241;-68
2021/12/10 08:12:40;;;;;;;10.47;2.63;;;;;;;-145.18;100.00;47625.47;5068894;28;20833;-68
2021/12/10 08:15:07;;;;;;;14.30;3.27;;;;;;;-145.18;100.00;47603.97;5068624;28;20285;-68
2021/12/10 08:17:33;;;;;;;8.77;2.90;;;;;;;-145.18;100.00;47603.97;5067424;28;20075;-68
2021/12/10 08:20:01;;;;;;;8.00;2.77;;;;;;;-145.18;100.00;47592.25;5069070;28;20277;-69
2021/12/10 08:22:26;;;;;;;10.33;3.13;;;;;;;-145.18;100.00;47605.94;5069266;28;20269;-68
2021/12/10 08:24:52;;;;;;;14.30;2.57;;;;;;;-145.18;100.00;47621.56;5068692;28;20300;-68
2021/12/10 08:27:17;;;;;;;16.47;3.00;;;;;;;-145.18;100.00;47629.38;5067459;28;20036;-68
2021/12/10 08:29:44;;;;;;;11.63;3.20;;;;;;;-145.18;100.00;47613.75;5068343;28;20437;-68
2021/12/10 08:32:13;;;;;;;11.03;3.00;;;;;;;-145.18;100.00;47594.19;5068890;28;20043;-68
2021/12/10 08:34:39;;;;;;;7.80;2.50;;;;;;;-145.18;100.00;47594.19;5068198;28;20293;-68
2021/12/10 08:37:05;;;;;;;13.10;2.50;;;;;;;-145.18;100.00;47598.09;5068512;28;20304;-68
2021/12/10 08:39:30;;;;;;;8.57;2.27;;;;;;;-145.18;100.00;47603.97;5068921;28;20633;-68
2021/12/10 08:41:58;;;;;;;14.73;3.57;;;;;;;-145.18;100.00;47625.47;5068482;28;20468;-67
2021/12/10 08:44:24;;;;;;;11.20;2.33;;;;;;;-145.18;100.00;47603.97;5068377;28;20109;-67
2021/12/10 08:46:50;;;;;;;11.07;2.60;;;;;;;-145.18;100.00;47596.16;5068279;28;20281;-67
2021/12/10 08:49:17;;;;;;;16.07;2.47;;;;;;;-145.18;100.00;47596.16;5068359;28;20277;-68
2021/12/10 08:51:50;;;;;;;7.50;2.73;;;;;;;-145.18;100.00;47594.19;5067992;28;20345;-68
2021/12/10 08:54:17;;;;;;;10.47;2.40;;;;;;;-145.18;100.00;47625.47;5068392;28;20305;-68
2021/12/10 08:56:45;;;;;;;15.40;2.50;;;;;;;-145.18;100.00;47613.75;5067841;28;20274;-68
2021/12/10 08:59:12;;;;;;;8.23;2.40;;;;;;;-145.18;100.00;47592.25;5068264;28;20843;-68
2021/12/10 09:01:42;;;;;;;15.70;2.40;;;;;;;-145.18;100.00;47592.25;5067608;28;20344;-68
2021/12/10 09:04:12;;;;;;;19.63;2.53;;;;;;;-145.18;100.00;47615.69;5067787;28;20797;-68
2021/12/10 09:06:42;;;;;;;12.60;3.00;;;;;;;-145.18;100.00;47617.66;5067503;28;20285;-68
2021/12/10 09:09:10;;;;;;;7.03;2.60;;;;;;;-145.18;100.00;47594.19;5067117;28;20319;-67
2021/12/10 09:11:38;;;;;;;7.47;2.17;;;;;;;-145.18;100.00;47611.78;5068238;28;20270;-67
2021/12/10 09:14:06;;;;;;;11.13;3.50;;;;;;;-145.18;100.00;47621.56;5067746;28;20262;-68
2021/12/10 09:16:31;;;;;;;11.97;3.47;;;;;;;-145.18;100.00;47617.66;5067756;28;20277;-68
2021/12/10 09:19:02;;;;;;;12.23;2.50;;;;;;;-145.18;100.00;47621.56;5066283;28;20790;-68
2021/12/10 09:21:29;;;;;;;11.00;2.70;;;;;;;-145.18;100.00;47588.34;5067874;28;20048;-68
2021/12/10 09:24:00;;;;;;;12.47;2.90;;;;;;;-145.18;100.00;47594.19;5066735;28;20287;-68
2021/12/10 09:26:27;;;;;;;11.77;2.10;;;;;;;-145.18;100.00;47609.84;5060880;28;20285;-68
2021/12/10 09:28:54;;;;;;;8.43;2.50;;;;;;;-145.18;100.00;47611.78;5058617;28;20726;-68
2021/12/10 09:31:24;;;;;;;12.47;2.60;;;;;;;-145.18;100.00;47617.66;5067771;28;20328;-68
2021/12/10 09:33:51;;;;;;;13.23;2.77;;;;;;;-145.18;100.00;47605.94;5066945;28;20273;-68
2021/12/10 09:36:16;;;;;;;17.50;2.67;;;;;;;-145.18;100.00;47588.34;5065814;28;20673;-68
2021/12/10 09:38:42;;;;;;;9.63;2.60;;;;;;;-145.18;100.00;47582.47;5067794;28;20277;-68
2021/12/10 09:41:10;;;;;;;10.27;2.60;;;;;;;-145.18;100.00;47615.69;5067539;28;20048;-67
2021/12/10 09:43:36;;;;;;;11.70;3.83;;;;;;;-145.18;100.00;47578.56;5066991;28;20051;-67
2021/12/10 09:46:04;;;;;;;12.90;2.93;;;;;;;-145.18;100.00;47594.19;5067070;28;20273;-67
2021/12/10 09:48:30;;;;;;;12.97;2.53;;;;;;;-145.18;100.00;47617.66;5066447;28;20849;-68
2021/12/10 09:51:03;;;;;;;12.60;3.20;;;;;;;-145.18;100.00;47602.00;5067136;28;20332;-68
2021/12/10 09:53:31;;;;;;;11.10;3.07;;;;;;;-145.18;100.00;47603.97;5066749;28;20284;-68
2021/12/10 09:55:57;;;;;;;9.37;3.17;;;;;;;-145.18;100.00;47594.19;5067214;28;20281;-67
2021/12/10 09:58:23;;;;;;;18.37;3.43;;;;;;;-145.18;100.00;47582.47;5066865;28;21086;-68
2021/12/10 10:01:04;;;;;;;13.37;2.80;;;;;;;-145.18;100.00;47586.38;5067088;28;20300;-67
2021/12/10 10:03:34;;;;;;;13.23;3.63;;;;;;;-145.18;100.00;47564.91;5062789;28;20282;-68
2021/12/10 10:06:00;;;;;;;9.10;3.53;;;;;;;-145.18;100.00;47592.25;5066910;28;20305;-67
2021/12/10 10:08:26;;;;;;;11.77;3.73;;;;;;;-145.18;100.00;47576.63;5066772;28;20301;-68
2021/12/10 10:10:56;;;;;;;13.87;3.67;;;;;;;-145.18;100.00;47578.56;5066881;28;20048;-67
2021/12/10 10:13:28;;;;;;;14.23;3.70;;;;;;;-145.18;100.00;47586.38;5066710;28;20331;-68
2021/12/10 10:15:57;;;;;;;9.80;3.93;;;;;;;-145.18;100.00;47586.38;5066686;28;20286;-68
2021/12/10 10:18:23;;;;;;;10.10;3.63;;;;;;;-145.18;100.00;47582.47;5066762;28;20633;-68
2021/12/10 10:20:54;;;;;;;10.27;3.67;;;;;;;-145.18;100.00;47566.84;5064699;28;20285;-68
2021/12/10 10:23:21;;;;;;;17.63;4.43;;;;;;;-145.18;100.00;47586.38;5066794;28;20261;-68
2021/12/10 10:25:51;;;;;;;13.80;4.33;;;;;;;-145.18;100.00;47576.63;5066014;28;20285;-68
2021/12/10 10:28:17;;;;;;;14.00;4.37;;;;;;;-145.18;100.00;47557.06;5066966;28;20336;-68
2021/12/10 10:30:52;;;;;;;15.10;3.97;;;;;;;-145.18;100.00;47566.84;5066166;28;20266;-68
2021/12/10 10:33:18;;;;;;;12.98;4.82;;;;;;;-145.18;100.00;47574.66;5066855;28;20330;-68
2021/12/10 10:35:48;;;;;;;12.27;4.60;;;;;;;-145.18;100.00;47590.28;5066159;28;20040;-68
2021/12/10 10:38:16;;;;;;;17.20;4.70;;;;;;;-145.18;100.00;47590.28;5066395;28;20036;-68
2021/12/10 10:40:47;;;;;;;11.30;4.37;;;;;;;-145.18;100.00;47578.56;5066230;28;20320;-67
2021/12/10 10:43:12;;;;;;;19.13;4.80;;;;;;;-145.18;100.00;47566.84;5066762;28;20750;-67
2021/12/10 10:45:42;;;;;;;17.80;5.27;;;;;;;-145.18;100.00;47580.53;5065890;28;20296;-67
2021/12/10 10:48:09;;;;;;;16.23;5.30;;;;;;;-145.18;100.00;47586.38;5066331;28;20032;-67
2021/12/10 10:50:39;;;;;;;16.40;5.30;;;;;;;-145.18;100.00;47578.56;5065941;28;20338;-68
2021/12/10 10:53:11;;;;;;;14.07;5.87;;;;;;;-145.18;100.00;47564.91;5066525;28;20288;-67
2021/12/10 10:55:49;;;;;;;17.40;5.17;;;;;;;-145.18;100.00;47566.84;5065820;28;20269;-68
2021/12/10 10:58:17;;;;;;;14.93;5.03;;;;;;;-145.18;100.00;47572.72;5066234;28;20265;-67
2021/12/10 11:01:04;;;;;;;10.80;4.50;;;;;;;-145.18;100.00;47578.56;5065959;28;20765;-68
2021/12/10 11:03:38;;;;;;;;;;;;;;;-145.18;100.00;47570.75;5066527;28;20323;-67
2021/12/10 11:06:11;;;;;;;11.67;4.20;;;;;;;-145.18;100.00;47564.91;5066332;28;19921;-68
2021/12/10 11:08:46;;;;;;;16.27;4.73;;;;;;;-145.18;100.00;47582.47;5065880;28;20266;-68
2021/12/10 11:11:23;;;;;;;14.27;5.05;;;;;;;-145.18;100.00;47564.91;5066647;28;20262;-68
2021/12/10 11:13:59;;;;;;;20.50;5.57;;;;;;;-145.18;100.00;47596.16;5062853;28;20040;-67
2021/12/10 11:16:28;;;;;;;15.43;5.50;;;;;;;-145.18;100.00;47561.00;5066255;28;20260;-68